Main page
METAR-TAF:

METAR-TAF

Airports :

Dubai International Airport

Dubai, United Arab Emirates

latitude: 25-15-10N, longitude: 055-21-52E, elevation: 8 m

Current weather observation

The report was made 1 hour and 2 minutes ago, at 23:00 UTC
Wind 6 kt from the South/Southwest
Temperature 28°C
Humidity 58%
Pressure 1006 hPa
Visibility 10 km or more
no clouds below 1500 m and no cumulonimbus

METAR: OMDB 222300Z 20006KT CAVOK 28/19 Q1006 NOSIG

Time: 04:02 (00:02 UTC)

Forecast

The report was made 1 hour and 8 minutes ago, at 22:54 UTC
Forecast valid from 23 at 00 UTC to 24 at 06 UTC
Wind 8 kt from the South/Southwest
Visibility: 8000 m
Becoming
from 23 at 05 UTC to 23 at 07 UTC
Wind 15 kt from the West
Becoming
from 23 at 16 UTC to 23 at 18 UTC
Wind 5 kt from the South

TAF: OMDB 222254Z 2300/2406 21008KT 8000 NSC BECMG 2305/2307 28015KT BECMG 2316/2318 18005KT

Weather observations and forecasts of more than 4000 airports (METAR and TAF reports).

The available stations are represented by yellow and red dots on the map.

Hover mouse over dot to see the name of the station.

Then click to see weather observations and forecasts.

To change the map : click on the green buttons with a black cross to zoom in, on the green button with a dash to zoom out, or on the green arrows for adjacent maps.


METAR-TAF: